Aérodrome :
LOGIN :

S'inscrire | Disclaimer

   EN    FR    IT 

 










Légende :    VFR   VFR Marginal   IFR   IFR Intensif   IFR Très Intensif
Visi : 
Plafond : 
>= 8 km
>= 3000ft
5 à 8 km
1000 à 3000 ft
1500m à 5 km
500 à 1000 ft
800 à 1500m
200 à 500 ft
< 800m
< 200 ft
Symboles :   Orages  Brouillard  Fortes neiges  Fortes précipitations  Vent > 20 kt
SIGMETs :   Divers  Orages  Givrage  Turbulence  Onde Orograph.  Cendres Volcan.







- Altitude de l'aérodrome : 32 ft
- Code IATA : NRK


ESSP - Norrköping

DERNIER METAR :
  • 171450Z 10014KT CAVOK 29/12 Q1013

METARs EXPIRÉS :
  • 171420Z 10015KT CAVOK 28/11 Q1013
  • 171350Z 10014KT CAVOK 29/11 Q1013
  • 171320Z 09014KT CAVOK 31/11 Q1013
  • 171250Z 11014KT CAVOK 31/11 Q1013
  • 171220Z 11014KT CAVOK 29/12 Q1013

TAF TAF ESSP
Valide du 17 à 15h jusqu'au 17 à 17h UTC


171430Z 1715/1717 10014KT CAVOK
Pas de NOTAMs connus pour ce terrain.
1 SIGMET publié pour la FIR Sweden (ESAA) :
 
Orages en lignes de grains
ESAA SIGMET 2 VALID 171430/171630 ESSA
ESAA SWEDEN FIR SQL TS FCST WI N5752 E01330 - N5815 E01415 - N5624 E01410 - N5612 E01332 - N5752 E01330 TOP FL370 MOV W 10KT NC=



MET'MAP, la Météo Aéronautique d'un coup d'oeil ! - Copyright ORBIFLY Décembre 2007 - Disclaimer

ORBIFLY MET'MAP TEAM :

Programmation & Développement : Alexandra Zaïnal
Conception & Développement : Baudouin d'Aumeries
Co-Programmation & Développement : Marc-Olivier Méhu
Soutien technique & logistique : Manuel Goepfert

Contact : metmap@orbifly.com




SOURCES & CREDITS :

   NOAA